Terminal Aerodrome Forecast
Issued by NWS

Home | Current Version | Previous Version | Text Only | Print | Product List | Glossary On
Versions: 1 2 3 4 5 6 7 8 9 10 11 12 13 14
000
FTUS44 KBMX 221100
TAFMGM
TAF
KMGM 221140Z 2212/2312 07004KT P6SM SCT050
     FM221400 08007KT P6SM BKN050
     FM221600 11010KT P6SM BKN025 BKN150
     FM230300 09008KT P6SM SHRA OVC020
     FM230900 10011KT 4SM TSRA BKN020 OVC035CB=

USA.gov is the U.S. government's official web portal to all federal, state and local government web resources and services.